sensor_id;sensor_type;location;lat;lon;timestamp;pressure;altitude;pressure_sealevel;temperature;humidity
47710;BME280;33473;51.640;5.892;2023-03-16T00:06:23;101700;;;9.6;43.0
47710;BME280;33473;51.640;5.892;2023-03-16T00:19:43;101700;;;9.7;43.0
47710;BME280;33473;51.640;5.892;2023-03-16T00:33:02;101700;;;9.8;43.0
47710;BME280;33473;51.640;5.892;2023-03-16T00:46:22;101700;;;9.9;44.0
47710;BME280;33473;51.640;5.892;2023-03-16T00:59:42;101600;;;9.9;43.0
47710;BME280;33473;51.640;5.892;2023-03-16T01:13:01;101600;;;9.9;44.0
47710;BME280;33473;51.640;5.892;2023-03-16T01:26:21;101600;;;9.8;44.0
47710;BME280;33473;51.640;5.892;2023-03-16T01:39:41;101600;;;9.8;44.0
47710;BME280;33473;51.640;5.892;2023-03-16T01:53:00;101600;;;9.7;44.0
47710;BME280;33473;51.640;5.892;2023-03-16T02:06:20;101600;;;9.7;44.0
47710;BME280;33473;51.640;5.892;2023-03-16T02:19:40;101600;;;9.5;45.0
47710;BME280;33473;51.640;5.892;2023-03-16T02:33:00;101600;;;9.3;45.0
47710;BME280;33473;51.640;5.892;2023-03-16T02:46:19;101500;;;9.6;45.0
47710;BME280;33473;51.640;5.892;2023-03-16T02:59:39;101500;;;9.7;44.0
47710;BME280;33473;51.640;5.892;2023-03-16T03:12:59;101500;;;9.9;44.0
47710;BME280;33473;51.640;5.892;2023-03-16T03:26:18;101500;;;10.1;44.0
47710;BME280;33473;51.640;5.892;2023-03-16T03:39:38;101500;;;10.2;44.0
47710;BME280;33473;51.640;5.892;2023-03-16T03:52:58;101500;;;10.2;44.0
47710;BME280;33473;51.640;5.892;2023-03-16T04:06:17;101500;;;10.1;45.0
47710;BME280;33473;51.640;5.892;2023-03-16T04:19:37;101500;;;10.2;44.0
47710;BME280;33473;51.640;5.892;2023-03-16T04:32:57;101500;;;10.1;44.0
47710;BME280;33473;51.640;5.892;2023-03-16T04:46:16;101500;;;10.1;44.0
47710;BME280;33473;51.640;5.892;2023-03-16T04:59:36;101500;;;10.1;44.0
47710;BME280;33473;51.640;5.892;2023-03-16T05:12:56;101500;;;10.1;44.0
47710;BME280;33473;51.640;5.892;2023-03-16T05:26:16;101500;;;10.2;44.0
47710;BME280;33473;51.640;5.892;2023-03-16T05:39:35;101500;;;10.2;45.0
47710;BME280;33473;51.640;5.892;2023-03-16T05:52:55;101500;;;10.2;44.0
47710;BME280;33473;51.640;5.892;2023-03-16T06:06:15;101500;;;10.2;45.0
47710;BME280;33473;51.640;5.892;2023-03-16T06:19:34;101400;;;10.3;45.0
47710;BME280;33473;51.640;5.892;2023-03-16T06:32:54;101400;;;10.4;45.0
47710;BME280;33473;51.640;5.892;2023-03-16T06:46:14;101400;;;10.6;46.0
47710;BME280;33473;51.640;5.892;2023-03-16T06:59:33;101500;;;10.7;46.0
47710;BME280;33473;51.640;5.892;2023-03-16T07:12:53;101500;;;10.5;47.0
47710;BME280;33473;51.640;5.892;2023-03-16T07:26:13;101400;;;10.5;48.0
47710;BME280;33473;51.640;5.892;2023-03-16T07:39:32;101500;;;10.2;49.0
47710;BME280;33473;51.640;5.892;2023-03-16T07:52:52;101500;;;10.6;49.0
47710;BME280;33473;51.640;5.892;2023-03-16T08:06:12;101400;;;10.5;50.0
47710;BME280;33473;51.640;5.892;2023-03-16T08:19:31;101400;;;10.2;51.0
47710;BME280;33473;51.640;5.892;2023-03-16T08:32:51;101400;;;10.2;52.0
47710;BME280;33473;51.640;5.892;2023-03-16T08:46:11;101400;;;10.7;51.0
47710;BME280;33473;51.640;5.892;2023-03-16T08:59:30;101400;;;11.3;49.0
47710;BME280;33473;51.640;5.892;2023-03-16T09:12:50;101400;;;11.9;47.0
47710;BME280;33473;51.640;5.892;2023-03-16T09:26:10;101400;;;12.3;46.0
47710;BME280;33473;51.640;5.892;2023-03-16T09:39:29;101400;;;12.7;46.0
47710;BME280;33473;51.640;5.892;2023-03-16T09:52:49;101400;;;13.2;44.0
47710;BME280;33473;51.640;5.892;2023-03-16T10:06:09;101400;;;13.7;43.0
47710;BME280;33473;51.640;5.892;2023-03-16T10:19:28;101300;;;14.2;42.0
47710;BME280;33473;51.640;5.892;2023-03-16T10:32:48;101300;;;15.1;39.0
47710;BME280;33473;51.640;5.892;2023-03-16T10:46:08;101300;;;16.0;37.0
47710;BME280;33473;51.640;5.892;2023-03-16T10:59:27;101300;;;16.4;36.0
47710;BME280;33473;51.640;5.892;2023-03-16T11:12:47;101300;;;17.8;34.0
47710;BME280;33473;51.640;5.892;2023-03-16T11:26:07;101300;;;17.8;35.0
47710;BME280;33473;51.640;5.892;2023-03-16T11:39:27;101300;;;17.2;36.0
47710;BME280;33473;51.640;5.892;2023-03-16T11:52:46;101200;;;17.1;34.0
47710;BME280;33473;51.640;5.892;2023-03-16T12:06:06;101200;;;17.2;34.0
47710;BME280;33473;51.640;5.892;2023-03-16T12:19:26;101200;;;17.5;35.0
47710;BME280;33473;51.640;5.892;2023-03-16T12:32:45;101200;;;17.6;33.0
47710;BME280;33473;51.640;5.892;2023-03-16T12:46:05;101200;;;18.2;33.0
47710;BME280;33473;51.640;5.892;2023-03-16T12:59:24;101100;;;18.4;33.0
47710;BME280;33473;51.640;5.892;2023-03-16T13:12:44;101100;;;18.5;32.0
47710;BME280;33473;51.640;5.892;2023-03-16T13:26:04;101100;;;18.8;32.0
47710;BME280;33473;51.640;5.892;2023-03-16T13:39:23;101100;;;18.9;31.0
47710;BME280;33473;51.640;5.892;2023-03-16T13:52:43;101100;;;19.6;29.0
47710;BME280;33473;51.640;5.892;2023-03-16T14:06:03;101000;;;20.2;30.0
47710;BME280;33473;51.640;5.892;2023-03-16T14:19:22;101000;;;19.9;29.0
47710;BME280;33473;51.640;5.892;2023-03-16T14:32:42;101000;;;19.6;29.0
47710;BME280;33473;51.640;5.892;2023-03-16T14:46:02;101000;;;19.3;29.0
47710;BME280;33473;51.640;5.892;2023-03-16T14:59:21;101000;;;19.1;29.0
47710;BME280;33473;51.640;5.892;2023-03-16T15:12:41;101000;;;19.2;29.0
47710;BME280;33473;51.640;5.892;2023-03-16T15:26:01;100900;;;18.9;30.0
47710;BME280;33473;51.640;5.892;2023-03-16T15:39:20;100900;;;19.0;30.0
47710;BME280;33473;51.640;5.892;2023-03-16T15:52:40;100900;;;19.2;30.0
47710;BME280;33473;51.640;5.892;2023-03-16T16:06:00;100900;;;18.9;31.0
47710;BME280;33473;51.640;5.892;2023-03-16T16:19:20;100900;;;18.9;32.0
47710;BME280;33473;51.640;5.892;2023-03-16T16:32:39;100900;;;18.3;33.0
47710;BME280;33473;51.640;5.892;2023-03-16T16:45:59;100900;;;17.9;33.0
47710;BME280;33473;51.640;5.892;2023-03-16T16:59:19;100900;;;17.9;34.0
47710;BME280;33473;51.640;5.892;2023-03-16T17:12:38;100900;;;17.2;35.0
47710;BME280;33473;51.640;5.892;2023-03-16T17:25:58;100900;;;16.7;37.0
47710;BME280;33473;51.640;5.892;2023-03-16T17:39:18;100900;;;15.9;38.0
47710;BME280;33473;51.640;5.892;2023-03-16T17:52:37;100900;;;15.8;38.0
47710;BME280;33473;51.640;5.892;2023-03-16T18:05:57;100900;;;15.3;39.0
47710;BME280;33473;51.640;5.892;2023-03-16T18:19:17;100900;;;14.9;40.0
47710;BME280;33473;51.640;5.892;2023-03-16T18:32:36;100900;;;14.5;41.0
47710;BME280;33473;51.640;5.892;2023-03-16T18:45:56;100900;;;14.2;42.0
47710;BME280;33473;51.640;5.892;2023-03-16T18:59:16;100900;;;13.8;43.0
47710;BME280;33473;51.640;5.892;2023-03-16T19:12:35;100900;;;13.6;44.0
47710;BME280;33473;51.640;5.892;2023-03-16T19:25:55;100900;;;13.7;43.0
47710;BME280;33473;51.640;5.892;2023-03-16T19:39:15;100800;;;13.9;42.0
47710;BME280;33473;51.640;5.892;2023-03-16T19:52:34;100900;;;13.9;42.0
47710;BME280;33473;51.640;5.892;2023-03-16T20:05:54;100800;;;13.8;42.0
47710;BME280;33473;51.640;5.892;2023-03-16T20:19:14;100800;;;13.8;41.0
47710;BME280;33473;51.640;5.892;2023-03-16T20:32:33;100800;;;13.8;42.0
47710;BME280;33473;51.640;5.892;2023-03-16T20:45:53;100800;;;13.6;43.0
47710;BME280;33473;51.640;5.892;2023-03-16T20:59:13;100800;;;13.2;44.0
47710;BME280;33473;51.640;5.892;2023-03-16T21:12:33;100800;;;13.1;44.0
47710;BME280;33473;51.640;5.892;2023-03-16T21:25:52;100800;;;13.1;44.0
47710;BME280;33473;51.640;5.892;2023-03-16T21:39:12;100800;;;13.0;44.0
47710;BME280;33473;51.640;5.892;2023-03-16T21:52:32;100800;;;12.9;44.0
47710;BME280;33473;51.640;5.892;2023-03-16T22:05:51;100800;;;12.8;44.0
47710;BME280;33473;51.640;5.892;2023-03-16T22:19:11;100800;;;12.7;44.0
47710;BME280;33473;51.640;5.892;2023-03-16T22:32:31;100700;;;12.5;44.0
47710;BME280;33473;51.640;5.892;2023-03-16T22:45:50;100700;;;12.9;43.0
47710;BME280;33473;51.640;5.892;2023-03-16T22:59:10;100700;;;13.0;43.0
47710;BME280;33473;51.640;5.892;2023-03-16T23:12:30;100700;;;13.1;43.0
47710;BME280;33473;51.640;5.892;2023-03-16T23:25:49;100700;;;13.1;43.0
